El Progreso, Guatemala
Current Conditions -  °F | °C
As of 3:00 PM on Thursday 27 Nov 2014 (Local Time) from MGGT Reporting Station
Few Clouds Few Clouds  
Wind Chill: 63°   Ceiling: Unl
Heat Index: 63°   Visibility: 6mi
Dew Point: 45°   Wind: 18mph
Humidity: 52%   Direction: 360°N
Pressure: 30.3"   Gusts: 30mph
Location:  14.35°N, 89.85°W
Report Text: MGGT 272100Z 36016G26KT 9999 FEW018 17/07 Q1026 A3030 FEW080
Loading
Personal Weather Stations






























Interactive Weather Map New forecast layout! Learn more

10-Day Weather Forecast

Advertisements
Track Severe Weather on mobile